Time;durP1;ratioP1;P1;durP2;ratioP2;P2;SDS_P1;SDS_P2;PMS_P1;PMS_P2;Temp;Humidity;BMP_temperature;BMP_pressure;BME280_temperature;BME280_humidity;BME280_pressure;Samples;Min_cycle;Max_cycle;Signal;HPM_P1;HPM_P2
2023/07/16 00:02:05;;;;;;;0.70;0.50;;;18.30;99.90;;;;;;5032884;28;20250;-69
2023/07/16 00:04:31;;;;;;;0.50;0.50;;;18.20;99.90;;;;;;5032987;28;20175;-69
2023/07/16 00:06:59;;;;;;;0.40;0.40;;;18.10;99.90;;;;;;5032836;28;20444;-68
2023/07/16 00:09:25;;;;;;;0.63;0.63;;;18.00;99.90;;;;;;5035846;28;20418;-69
2023/07/16 00:11:50;;;;;;;0.83;0.83;;;18.00;99.90;;;;;;5036685;28;20405;-69
2023/07/16 00:14:16;;;;;;;0.50;0.50;;;17.90;99.90;;;;;;5036734;28;20179;-69
2023/07/16 00:16:41;;;;;;;0.30;0.30;;;17.70;99.90;;;;;;5036822;28;20210;-69
2023/07/16 00:19:09;;;;;;;0.80;0.80;;;17.70;99.90;;;;;;5036483;28;20218;-68
2023/07/16 00:21:35;;;;;;;0.50;0.50;;;17.50;99.90;;;;;;5036376;28;20519;-68
2023/07/16 00:24:00;;;;;;;1.27;0.50;;;17.40;99.90;;;;;;5036656;28;20424;-69
2023/07/16 00:26:26;;;;;;;0.40;0.40;;;17.40;99.90;;;;;;5036511;28;20189;-69
2023/07/16 00:28:52;;;;;;;0.97;0.97;;;17.50;99.90;;;;;;5036475;28;20727;-69
2023/07/16 00:31:18;;;;;;;0.93;0.93;;;17.40;99.90;;;;;;5036588;28;20413;-69
2023/07/16 00:33:43;;;;;;;0.83;0.83;;;17.40;99.90;;;;;;5036649;28;20185;-69
2023/07/16 00:36:09;;;;;;;1.00;0.97;;;17.50;99.90;;;;;;5036287;28;20179;-69
2023/07/16 00:38:34;;;;;;;0.60;0.60;;;17.40;99.90;;;;;;5036279;28;20191;-69
2023/07/16 00:41:00;;;;;;;1.60;1.03;;;17.30;99.90;;;;;;5036150;28;20175;-68
2023/07/16 00:43:26;;;;;;;0.80;0.80;;;17.20;99.90;;;;;;5036367;28;20653;-69
2023/07/16 00:45:51;;;;;;;0.40;0.40;;;17.20;99.90;;;;;;5036001;28;20179;-68
2023/07/16 00:48:18;;;;;;;0.60;0.60;;;17.20;99.90;;;;;;5036048;28;20221;-68
2023/07/16 00:50:44;;;;;;;0.60;0.60;;;17.20;99.90;;;;;;5035945;28;20287;-69
2023/07/16 00:53:10;;;;;;;0.40;0.40;;;17.10;99.90;;;;;;5036348;28;20409;-68
2023/07/16 00:55:36;;;;;;;0.40;0.40;;;17.10;99.90;;;;;;5035939;28;20481;-68
2023/07/16 00:58:05;;;;;;;0.70;0.50;;;17.10;99.90;;;;;;5035800;28;20794;-69
2023/07/16 01:00:32;;;;;;;0.30;0.30;;;17.00;99.90;;;;;;5036103;28;20409;-69
2023/07/16 01:02:58;;;;;;;0.90;0.50;;;16.90;99.90;;;;;;5035712;28;20421;-68
2023/07/16 01:05:28;;;;;;;0.60;0.60;;;16.80;99.90;;;;;;5036118;28;20398;-69
2023/07/16 01:08:01;;;;;;;6.30;1.17;;;16.80;99.90;;;;;;5035969;28;20432;-68
2023/07/16 01:10:28;;;;;;;0.53;0.53;;;17.00;99.90;;;;;;5035904;28;20402;-69
2023/07/16 01:12:55;;;;;;;0.70;0.50;;;17.10;99.90;;;;;;5035380;28;20500;-69
2023/07/16 01:15:21;;;;;;;0.43;0.40;;;17.00;99.90;;;;;;5035812;28;20893;-69
2023/07/16 01:17:47;;;;;;;0.70;0.70;;;17.00;99.90;;;;;;5035498;28;20455;-68
2023/07/16 01:20:13;;;;;;;0.97;0.90;;;17.10;99.90;;;;;;5034360;28;20457;-68
2023/07/16 01:23:06;;;;;;;5.70;1.20;;;17.10;99.90;;;;;;5035490;28;20170;-68
2023/07/16 01:25:46;;;;;;;1.37;1.10;;;17.10;99.90;;;;;;5035372;28;20627;-68
2023/07/16 01:28:27;;;;;;;0.63;0.63;;;17.20;99.90;;;;;;5035305;28;20413;-69
2023/07/16 01:30:55;;;;;;;1.17;1.07;;;17.10;99.90;;;;;;5035399;28;20480;-68
2023/07/16 01:33:21;;;;;;;0.50;0.50;;;17.10;99.90;;;;;;5035447;28;20390;-69
2023/07/16 01:35:48;;;;;;;0.40;0.40;;;17.00;99.90;;;;;;5035165;28;20394;-68
2023/07/16 01:38:16;;;;;;;0.50;0.50;;;16.90;99.90;;;;;;5035119;28;21039;-69
2023/07/16 01:40:41;;;;;;;1.23;0.80;;;16.80;99.90;;;;;;5035332;28;20805;-69
2023/07/16 01:43:07;;;;;;;0.80;0.77;;;16.80;99.90;;;;;;5035217;28;20448;-69
2023/07/16 01:45:33;;;;;;;0.50;0.50;;;16.80;99.90;;;;;;5035142;28;20444;-69
2023/07/16 01:48:26;;;;;;;0.83;0.83;;;16.80;99.90;;;;;;5035169;28;20202;-68
2023/07/16 01:50:52;;;;;;;0.50;0.47;;;16.80;99.90;;;;;;5034769;28;20174;-68
2023/07/16 01:53:17;;;;;;;0.93;0.93;;;16.80;99.90;;;;;;5034915;28;20741;-69
2023/07/16 01:55:43;;;;;;;0.53;0.53;;;16.70;99.90;;;;;;5034790;28;20186;-68
2023/07/16 01:58:09;;;;;;;0.30;0.30;;;16.70;99.90;;;;;;5034487;28;20558;-69
2023/07/16 02:00:35;;;;;;;0.40;0.40;;;16.60;99.90;;;;;;5034633;28;20228;-69
2023/07/16 02:03:01;;;;;;;0.30;0.30;;;16.60;99.90;;;;;;5034262;28;20423;-69
2023/07/16 02:05:27;;;;;;;0.30;0.30;;;16.40;99.90;;;;;;5034397;28;20406;-68
2023/07/16 02:07:52;;;;;;;0.57;0.50;;;16.40;99.90;;;;;;5034513;28;20658;-69
2023/07/16 02:10:18;;;;;;;0.67;0.67;;;16.40;99.90;;;;;;5034548;28;20657;-68
2023/07/16 02:12:44;;;;;;;0.40;0.40;;;16.20;99.90;;;;;;5034355;28;20605;-69
2023/07/16 02:15:10;;;;;;;1.30;0.87;;;16.00;99.90;;;;;;5034689;28;20175;-68
2023/07/16 02:17:35;;;;;;;1.00;1.00;;;15.80;99.90;;;;;;5034465;28;20237;-68
2023/07/16 02:20:03;;;;;;;0.50;0.50;;;15.70;99.90;;;;;;5034566;28;20491;-68
2023/07/16 02:22:29;;;;;;;0.30;0.30;;;15.80;99.90;;;;;;5034309;28;20211;-68
2023/07/16 02:24:55;;;;;;;1.07;1.07;;;15.80;99.90;;;;;;5034513;28;20409;-68
2023/07/16 02:27:20;;;;;;;0.40;0.40;;;15.90;99.90;;;;;;5034281;28;20701;-68
2023/07/16 02:29:46;;;;;;;1.20;0.90;;;16.00;99.90;;;;;;5034199;28;20178;-70
2023/07/16 02:32:12;;;;;;;2.73;2.53;;;16.10;99.90;;;;;;5033602;28;20180;-69
2023/07/16 02:34:37;;;;;;;0.87;0.50;;;16.00;99.90;;;;;;5034347;28;20568;-69
2023/07/16 02:37:03;;;;;;;0.97;0.97;;;16.00;99.90;;;;;;5034405;28;20277;-69
2023/07/16 02:39:29;;;;;;;2.10;1.33;;;16.10;99.90;;;;;;5034027;28;20197;-68
2023/07/16 02:41:54;;;;;;;0.40;0.40;;;16.10;99.90;;;;;;5033982;28;20541;-68
2023/07/16 02:44:20;;;;;;;0.40;0.40;;;16.10;99.90;;;;;;5034145;28;20166;-68
2023/07/16 02:46:46;;;;;;;0.40;0.40;;;16.10;99.90;;;;;;5033812;28;20197;-69
2023/07/16 02:49:11;;;;;;;0.60;0.60;;;16.10;99.90;;;;;;5034056;28;20509;-69
2023/07/16 02:51:37;;;;;;;0.73;0.70;;;16.10;99.90;;;;;;5033670;28;20171;-68
2023/07/16 02:54:02;;;;;;;0.50;0.50;;;16.00;99.90;;;;;;5033787;28;20319;-69
2023/07/16 02:56:28;;;;;;;0.70;0.70;;;16.00;99.90;;;;;;5033800;28;20196;-69
2023/07/16 02:58:54;;;;;;;2.40;1.17;;;16.00;99.90;;;;;;5033553;28;20201;-69
2023/07/16 03:01:19;;;;;;;0.40;0.40;;;15.90;99.90;;;;;;5033800;28;20170;-69
2023/07/16 03:03:45;;;;;;;0.40;0.40;;;15.90;99.90;;;;;;5033655;28;20603;-69
2023/07/16 03:06:11;;;;;;;1.67;1.33;;;15.40;99.90;;;;;;5033595;28;20175;-69
2023/07/16 03:08:36;;;;;;;0.50;0.50;;;15.60;99.90;;;;;;5033780;28;20182;-69
2023/07/16 03:11:02;;;;;;;3.60;1.17;;;15.50;99.90;;;;;;5033487;28;20261;-68
2023/07/16 03:13:27;;;;;;;0.30;0.30;;;15.50;99.90;;;;;;5033720;28;20174;-68
2023/07/16 03:15:53;;;;;;;0.60;0.60;;;15.50;99.90;;;;;;5033640;28;20178;-69
2023/07/16 03:18:19;;;;;;;0.40;0.40;;;15.60;99.90;;;;;;5033329;28;20220;-68
2023/07/16 03:20:45;;;;;;;0.40;0.40;;;15.50;99.90;;;;;;5033330;28;20181;-69
2023/07/16 03:23:10;;;;;;;0.40;0.40;;;15.40;99.90;;;;;;5033379;28;20405;-67
2023/07/16 03:25:36;;;;;;;3.17;1.50;;;15.30;99.90;;;;;;5033469;28;20213;-69
2023/07/16 03:28:02;;;;;;;0.50;0.50;;;15.20;99.90;;;;;;5033289;28;20201;-68
2023/07/16 03:30:28;;;;;;;0.60;0.60;;;15.20;99.90;;;;;;5033574;28;20174;-68
2023/07/16 03:32:53;;;;;;;0.50;0.50;;;15.10;99.90;;;;;;5033145;28;20202;-69
2023/07/16 03:35:19;;;;;;;0.40;0.40;;;15.00;99.90;;;;;;5033276;28;20419;-69
2023/07/16 03:37:45;;;;;;;0.40;0.40;;;14.90;99.90;;;;;;5033198;28;20720;-68
2023/07/16 03:40:14;;;;;;;0.30;0.30;;;14.90;99.90;;;;;;5032930;28;20199;-69
2023/07/16 03:42:40;;;;;;;0.60;0.60;;;14.90;99.90;;;;;;5033229;28;20265;-68
2023/07/16 03:45:07;;;;;;;0.67;0.67;;;15.00;99.90;;;;;;5037301;28;20412;-68
2023/07/16 03:47:32;;;;;;;0.47;0.47;;;15.10;99.90;;;;;;5037239;28;20931;-69
2023/07/16 03:49:58;;;;;;;0.40;0.40;;;15.20;99.90;;;;;;5037380;28;20415;-68
2023/07/16 03:52:24;;;;;;;0.40;0.40;;;15.20;99.90;;;;;;5036968;28;20173;-69
2023/07/16 03:54:50;;;;;;;0.50;0.50;;;15.30;99.90;;;;;;5037111;28;20637;-69
2023/07/16 03:57:16;;;;;;;0.30;0.30;;;15.40;99.90;;;;;;5037074;28;20473;-69
2023/07/16 03:59:42;;;;;;;0.87;0.67;;;15.50;99.90;;;;;;5037314;28;20593;-68
2023/07/16 04:02:08;;;;;;;1.10;1.07;;;15.50;99.90;;;;;;5036816;28;20463;-69
2023/07/16 04:04:34;;;;;;;0.60;0.50;;;15.40;99.90;;;;;;5036897;28;20437;-68
2023/07/16 04:07:00;;;;;;;1.90;0.60;;;15.40;99.90;;;;;;5036813;28;20429;-69
2023/07/16 04:09:25;;;;;;;0.40;0.40;;;15.50;99.90;;;;;;5036871;28;20182;-69
2023/07/16 04:11:51;;;;;;;0.53;0.53;;;15.60;99.90;;;;;;5036647;28;20174;-69
2023/07/16 04:14:16;;;;;;;0.40;0.40;;;15.60;99.90;;;;;;5036856;28;20533;-68
2023/07/16 04:16:42;;;;;;;0.50;0.50;;;15.60;99.90;;;;;;5036776;28;20225;-69
2023/07/16 04:19:09;;;;;;;1.73;0.50;;;15.70;99.90;;;;;;5036484;28;20256;-69
2023/07/16 04:21:35;;;;;;;1.13;1.03;;;15.80;99.90;;;;;;5036536;28;20174;-69
2023/07/16 04:24:02;;;;;;;0.40;0.40;;;15.70;99.90;;;;;;5036646;28;20405;-68
2023/07/16 04:26:28;;;;;;;0.40;0.40;;;15.70;99.90;;;;;;5036680;28;20483;-68
2023/07/16 04:28:53;;;;;;;0.40;0.40;;;15.70;99.90;;;;;;5036745;28;20811;-69
2023/07/16 04:31:19;;;;;;;1.00;0.90;;;15.80;99.90;;;;;;5036398;28;20182;-69
2023/07/16 04:33:45;;;;;;;1.77;0.80;;;15.70;99.90;;;;;;5036583;28;20521;-69
2023/07/16 04:36:10;;;;;;;0.60;0.60;;;15.90;99.90;;;;;;5036248;28;20220;-69
2023/07/16 04:38:36;;;;;;;1.13;1.13;;;15.90;99.90;;;;;;5036247;28;20205;-69
2023/07/16 04:41:02;;;;;;;0.40;0.40;;;15.80;99.90;;;;;;5036263;28;20170;-69
2023/07/16 04:43:28;;;;;;;0.40;0.40;;;15.80;99.90;;;;;;5036402;28;20183;-69
2023/07/16 04:45:53;;;;;;;0.80;0.80;;;15.80;99.90;;;;;;5036406;28;20401;-69
2023/07/16 04:48:19;;;;;;;0.60;0.60;;;15.80;99.90;;;;;;5036079;28;20301;-68
2023/07/16 04:50:46;;;;;;;0.70;0.63;;;15.80;99.90;;;;;;5036064;28;20175;-70
2023/07/16 04:53:13;;;;;;;1.00;0.90;;;15.90;99.90;;;;;;5035942;28;20190;-69
2023/07/16 04:55:39;;;;;;;1.77;1.07;;;15.90;99.90;;;;;;5035464;28;20413;-69
2023/07/16 04:58:05;;;;;;;0.40;0.40;;;15.90;99.90;;;;;;5033882;28;20194;-69
2023/07/16 05:00:33;;;;;;;1.03;0.93;;;15.90;99.90;;;;;;5034787;28;20949;-68
2023/07/16 05:02:58;;;;;;;0.73;0.73;;;16.00;99.90;;;;;;5035655;28;20420;-68
2023/07/16 05:05:24;;;;;;;0.43;0.43;;;16.00;99.90;;;;;;5036262;28;20866;-69
2023/07/16 05:07:50;;;;;;;1.57;1.47;;;16.00;99.90;;;;;;5035822;28;20217;-69
2023/07/16 05:10:15;;;;;;;1.37;0.83;;;16.00;99.90;;;;;;5035860;28;20178;-69
2023/07/16 05:12:41;;;;;;;0.83;0.83;;;16.00;99.90;;;;;;5035553;28;20188;-68
2023/07/16 05:15:07;;;;;;;0.70;0.70;;;16.00;99.90;;;;;;5035754;28;20178;-69
2023/07/16 05:17:33;;;;;;;0.90;0.70;;;16.00;99.90;;;;;;5034923;28;20205;-68
2023/07/16 05:19:58;;;;;;;2.63;2.53;;;16.00;99.90;;;;;;5035824;28;20514;-68
2023/07/16 05:22:24;;;;;;;0.30;0.30;;;16.00;99.90;;;;;;5035338;28;20646;-68
2023/07/16 05:24:50;;;;;;;0.63;0.63;;;16.00;99.90;;;;;;5035692;28;20167;-68
2023/07/16 05:27:15;;;;;;;0.80;0.73;;;16.10;99.90;;;;;;5035420;28;20229;-69
2023/07/16 05:29:41;;;;;;;0.50;0.50;;;16.20;99.90;;;;;;5035952;28;20284;-69
2023/07/16 05:32:07;;;;;;;0.93;0.50;;;16.00;99.90;;;;;;5035301;28;20261;-69
2023/07/16 05:34:33;;;;;;;0.40;0.40;;;16.20;99.90;;;;;;5035309;28;20186;-68
2023/07/16 05:36:59;;;;;;;0.70;0.70;;;16.20;99.90;;;;;;5035594;28;20433;-68
2023/07/16 05:39:25;;;;;;;0.50;0.50;;;16.30;99.90;;;;;;5035763;28;20452;-68
2023/07/16 05:41:51;;;;;;;0.40;0.40;;;16.30;99.90;;;;;;5035438;28;20743;-69
2023/07/16 05:44:16;;;;;;;0.80;0.80;;;16.20;99.90;;;;;;5035506;28;20416;-68
2023/07/16 05:46:42;;;;;;;0.80;0.80;;;16.00;99.90;;;;;;5035481;28;20198;-69
2023/07/16 05:49:07;;;;;;;14.50;2.20;;;16.10;99.90;;;;;;5035378;28;20175;-69
2023/07/16 05:51:33;;;;;;;0.30;0.30;;;16.20;99.90;;;;;;5034874;28;20181;-69
2023/07/16 05:53:59;;;;;;;0.47;0.47;;;16.30;99.90;;;;;;5035223;28;20253;-69
2023/07/16 05:56:24;;;;;;;0.53;0.50;;;16.30;99.90;;;;;;5035234;28;20183;-68
2023/07/16 05:58:50;;;;;;;0.50;0.50;;;16.40;99.90;;;;;;5035319;28;20253;-69
2023/07/16 06:01:15;;;;;;;1.17;0.93;;;16.50;99.90;;;;;;5034948;28;20508;-68
2023/07/16 06:03:41;;;;;;;0.40;0.40;;;16.60;99.90;;;;;;5034855;28;20220;-68
2023/07/16 06:06:09;;;;;;;0.30;0.30;;;16.70;99.90;;;;;;5033979;28;20171;-69
2023/07/16 06:08:35;;;;;;;0.70;0.70;;;16.60;99.90;;;;;;5034631;28;20214;-68
2023/07/16 06:11:01;;;;;;;0.60;0.60;;;16.70;99.90;;;;;;5034358;28;20489;-69
2023/07/16 06:13:26;;;;;;;0.40;0.40;;;16.80;99.90;;;;;;5034296;28;20594;-68
2023/07/16 06:15:52;;;;;;;0.83;0.60;;;16.80;99.90;;;;;;5035179;28;20578;-69
2023/07/16 06:18:18;;;;;;;0.40;0.40;;;16.90;99.90;;;;;;5034289;28;20214;-70
2023/07/16 06:20:46;;;;;;;0.60;0.60;;;17.20;99.90;;;;;;5034391;28;20577;-69
2023/07/16 06:23:13;;;;;;;0.93;0.93;;;17.50;99.90;;;;;;5015657;28;20510;-68
2023/07/16 06:25:40;;;;;;;0.50;0.50;;;17.70;99.90;;;;;;5033466;28;20965;-69
2023/07/16 06:28:06;;;;;;;1.53;0.80;;;17.70;99.90;;;;;;5033140;28;20512;-69
2023/07/16 06:30:33;;;;;;;0.87;0.73;;;17.80;99.90;;;;;;5033646;28;20887;-68
2023/07/16 06:32:59;;;;;;;0.70;0.70;;;17.80;99.90;;;;;;5033533;28;20279;-68
2023/07/16 06:35:25;;;;;;;0.70;0.70;;;17.80;99.90;;;;;;5034412;28;20405;-69
2023/07/16 06:37:50;;;;;;;0.73;0.73;;;17.90;99.90;;;;;;5033713;28;20433;-69
2023/07/16 06:40:16;;;;;;;0.40;0.40;;;18.00;99.90;;;;;;5033837;28;20199;-68
2023/07/16 06:42:42;;;;;;;2.10;2.00;;;18.10;99.90;;;;;;5033815;28;20206;-68
2023/07/16 06:45:08;;;;;;;1.00;1.00;;;18.20;99.90;;;;;;5034568;28;20178;-69
2023/07/16 06:47:34;;;;;;;0.50;0.50;;;18.30;99.90;;;;;;5033441;28;20270;-69
2023/07/16 06:49:59;;;;;;;0.50;0.50;;;18.40;99.90;;;;;;5033902;28;20505;-69
2023/07/16 06:52:27;;;;;;;1.03;0.93;;;18.50;99.90;;;;;;5033498;28;20202;-68
2023/07/16 06:54:54;;;;;;;0.40;0.40;;;18.60;99.90;;;;;;5033844;28;20643;-69
2023/07/16 06:57:19;;;;;;;0.50;0.50;;;18.90;99.90;;;;;;5033753;28;20449;-69
2023/07/16 06:59:45;;;;;;;0.40;0.40;;;19.20;99.90;;;;;;5033598;28;20449;-70
2023/07/16 07:02:12;;;;;;;1.07;0.97;;;19.30;99.90;;;;;;5033604;28;20173;-68
2023/07/16 07:04:37;;;;;;;0.57;0.57;;;19.60;99.90;;;;;;5033738;28;20691;-70
2023/07/16 07:07:03;;;;;;;1.20;1.10;;;19.70;99.80;;;;;;5033826;28;20542;-69
2023/07/16 07:09:29;;;;;;;0.40;0.40;;;19.70;99.10;;;;;;5033690;28;20177;-68
2023/07/16 07:11:55;;;;;;;0.53;0.43;;;19.70;99.40;;;;;;5033429;28;20417;-69
2023/07/16 07:14:20;;;;;;;0.40;0.40;;;19.70;97.90;;;;;;5033722;28;20174;-69
2023/07/16 07:16:46;;;;;;;0.40;0.40;;;19.90;96.60;;;;;;5033420;28;20197;-69
2023/07/16 07:19:12;;;;;;;0.90;0.77;;;19.90;97.00;;;;;;5033232;28;20236;-69
2023/07/16 07:21:38;;;;;;;0.47;0.47;;;19.90;99.90;;;;;;5033398;28;20170;-69
2023/07/16 07:24:04;;;;;;;0.63;0.63;;;19.70;98.10;;;;;;5033515;28;20434;-69
2023/07/16 07:26:29;;;;;;;0.40;0.40;;;19.50;99.30;;;;;;5033227;28;20818;-69
2023/07/16 07:28:55;;;;;;;0.50;0.50;;;19.30;98.40;;;;;;5033333;28;20474;-69
2023/07/16 07:31:21;;;;;;;0.47;0.47;;;19.20;98.50;;;;;;5033186;28;20173;-68
2023/07/16 07:33:47;;;;;;;0.40;0.40;;;19.10;98.50;;;;;;5033330;28;20171;-68
2023/07/16 07:36:14;;;;;;;0.60;0.60;;;18.60;99.90;;;;;;5033554;28;20418;-69
2023/07/16 07:38:39;;;;;;;0.60;0.60;;;18.80;99.70;;;;;;5033138;28;20818;-70
2023/07/16 07:41:06;;;;;;;0.40;0.40;;;18.80;99.40;;;;;;5033039;28;20416;-69
2023/07/16 07:43:32;;;;;;;0.60;0.40;;;19.20;99.90;;;;;;5033361;28;20167;-69
2023/07/16 07:45:57;;;;;;;0.90;0.90;;;19.60;99.00;;;;;;5033229;28;20428;-69
2023/07/16 07:48:23;;;;;;;1.27;0.63;;;20.10;98.90;;;;;;5033071;28;20219;-69
2023/07/16 07:50:50;;;;;;;0.40;0.40;;;21.20;95.90;;;;;;5033073;28;20199;-69
2023/07/16 07:53:18;;;;;;;1.03;0.70;;;22.40;96.50;;;;;;5033068;28;20401;-70
2023/07/16 07:55:45;;;;;;;0.50;0.50;;;22.80;94.20;;;;;;5033124;28;20397;-69
2023/07/16 07:58:10;;;;;;;0.50;0.50;;;22.70;93.50;;;;;;5033261;28;20951;-70
2023/07/16 08:00:36;;;;;;;0.80;0.73;;;;;;;;;;5033253;28;20456;-69
2023/07/16 08:03:02;;;;;;;0.90;0.80;;;24.00;93.00;;;;;;5032745;28;20722;-69
2023/07/16 08:05:28;;;;;;;0.60;0.57;;;25.50;90.00;;;;;;5033122;28;20400;-69
2023/07/16 08:07:55;;;;;;;0.40;0.40;;;26.10;85.10;;;;;;5032909;28;20437;-69
2023/07/16 08:10:21;;;;;;;0.30;0.30;;;26.00;81.80;;;;;;5033102;28;20229;-69
2023/07/16 08:12:47;;;;;;;0.70;0.63;;;25.20;80.40;;;;;;5032759;28;20482;-69
2023/07/16 08:15:16;;;;;;;2.53;0.93;;;24.70;85.30;;;;;;5032862;28;20941;-69
2023/07/16 08:17:42;;;;;;;0.50;0.50;;;25.30;85.80;;;;;;5032790;28;20458;-69
2023/07/16 08:20:09;;;;;;;1.73;0.57;;;26.50;77.30;;;;;;5032990;28;20460;-69
2023/07/16 08:22:34;;;;;;;0.70;0.57;;;27.20;75.40;;;;;;5032747;28;20891;-70
2023/07/16 08:25:00;;;;;;;1.43;1.30;;;27.40;70.20;;;;;;5032906;28;20548;-70
2023/07/16 08:27:26;;;;;;;0.90;0.73;;;27.30;76.80;;;;;;5032833;28;20195;-70
2023/07/16 08:29:52;;;;;;;3.17;0.93;;;27.80;75.70;;;;;;5034787;28;20412;-70
2023/07/16 08:32:18;;;;;;;2.00;0.80;;;27.50;71.60;;;;;;5036295;28;20167;-69
2023/07/16 08:34:43;;;;;;;1.10;0.60;;;27.20;74.10;;;;;;5036516;28;20170;-70
2023/07/16 08:37:09;;;;;;;0.60;0.60;;;27.60;72.40;;;;;;5036464;28;20429;-70
2023/07/16 08:39:35;;;;;;;0.60;0.60;;;28.60;68.30;;;;;;5036210;28;20691;-70
2023/07/16 08:42:01;;;;;;;0.50;0.50;;;29.80;66.60;;;;;;5036299;28;20167;-70
2023/07/16 08:44:28;;;;;;;0.43;0.43;;;30.90;64.30;;;;;;5036298;28;20233;-70
2023/07/16 08:46:54;;;;;;;0.50;0.50;;;31.80;57.90;;;;;;5036261;28;20513;-70
2023/07/16 08:49:22;;;;;;;0.50;0.50;;;31.90;57.90;;;;;;5036303;28;20508;-69
2023/07/16 08:51:49;;;;;;;0.70;0.57;;;31.90;55.70;;;;;;5036165;28;20174;-70
2023/07/16 08:54:19;;;;;;;1.10;0.90;;;31.90;56.40;;;;;;5036225;28;20442;-70
2023/07/16 08:56:46;;;;;;;1.73;1.63;;;32.20;53.00;;;;;;5036044;28;20433;-70
2023/07/16 08:59:13;;;;;;;0.47;0.40;;;31.70;56.30;;;;;;5035959;28;20632;-70
2023/07/16 09:01:38;;;;;;;0.90;0.50;;;30.20;56.20;;;;;;5035746;28;20433;-69
2023/07/16 09:04:04;;;;;;;0.90;0.60;;;29.00;58.70;;;;;;5036042;28;20433;-68
2023/07/16 09:06:30;;;;;;;0.80;0.80;;;27.90;61.80;;;;;;5036022;28;20526;-70
2023/07/16 09:08:55;;;;;;;0.47;0.40;;;27.50;63.50;;;;;;5036080;28;20171;-69
2023/07/16 09:11:22;;;;;;;0.53;0.47;;;27.40;66.10;;;;;;5035728;28;20193;-70
2023/07/16 09:13:48;;;;;;;0.50;0.50;;;26.90;68.20;;;;;;5035864;28;20217;-69
2023/07/16 09:16:16;;;;;;;0.60;0.50;;;26.10;83.30;;;;;;5035728;28;20420;-69
2023/07/16 09:18:42;;;;;;;0.60;0.60;;;25.90;72.10;;;;;;5035642;28;20426;-69
2023/07/16 09:21:08;;;;;;;0.80;0.80;;;26.20;69.30;;;;;;5035635;28;20388;-69
2023/07/16 09:23:35;;;;;;;0.63;0.63;;;25.90;70.20;;;;;;5035763;28;20372;-70
2023/07/16 09:26:00;;;;;;;1.00;0.87;;;25.30;73.60;;;;;;5035657;28;20405;-69
2023/07/16 09:28:26;;;;;;;0.50;0.50;;;25.30;74.40;;;;;;5035376;28;20430;-69
2023/07/16 09:30:52;;;;;;;0.50;0.50;;;25.30;77.50;;;;;;5017705;28;20167;-70
2023/07/16 09:33:24;;;;;;;0.40;0.40;;;25.60;72.40;;;;;;5035391;28;20535;-69
2023/07/16 09:35:50;;;;;;;0.80;0.60;;;25.80;71.60;;;;;;5035518;28;20376;-69
2023/07/16 09:38:17;;;;;;;1.10;1.00;;;25.70;68.80;;;;;;5034992;28;20426;-69
2023/07/16 09:40:43;;;;;;;0.70;0.70;;;25.70;72.30;;;;;;5033610;28;20485;-69
2023/07/16 09:43:09;;;;;;;0.60;0.60;;;25.40;72.70;;;;;;5035222;28;20383;-69
2023/07/16 09:45:35;;;;;;;0.77;0.50;;;25.00;72.00;;;;;;5035398;28;20181;-69
2023/07/16 09:48:05;;;;;;;0.77;0.40;;;24.80;73.40;;;;;;5035079;28;20402;-70
2023/07/16 09:50:33;;;;;;;0.60;0.40;;;24.60;72.40;;;;;;5035094;28;20501;-69
2023/07/16 09:52:59;;;;;;;0.50;0.50;;;24.00;73.20;;;;;;5034856;28;20418;-69
2023/07/16 09:55:25;;;;;;;0.60;0.60;;;23.80;76.10;;;;;;5035362;28;20396;-69
2023/07/16 09:57:57;;;;;;;0.40;0.40;;;23.30;79.20;;;;;;5034893;28;20429;-69
2023/07/16 10:00:24;;;;;;;1.53;1.07;;;23.20;81.40;;;;;;5035023;28;20452;-69
2023/07/16 10:02:52;;;;;;;1.27;0.90;;;23.70;85.00;;;;;;5034879;28;20402;-69
2023/07/16 10:05:25;;;;;;;0.40;0.40;;;24.60;80.60;;;;;;5034920;28;20409;-70
2023/07/16 10:07:58;;;;;;;0.60;0.60;;;25.40;79.30;;;;;;5034752;28;20813;-69
2023/07/16 10:10:46;;;;;;;0.63;0.53;;;25.40;77.00;;;;;;5034820;28;20409;-70
2023/07/16 10:13:13;;;;;;;0.67;0.50;;;25.30;73.70;;;;;;5034814;28;20547;-69
2023/07/16 10:15:50;;;;;;;1.00;0.70;;;26.10;74.90;;;;;;5034751;28;20408;-69
2023/07/16 10:18:33;;;;;;;0.77;0.70;;;27.20;67.90;;;;;;5034360;28;20441;-70
2023/07/16 10:21:08;;;;;;;0.50;0.50;;;28.10;64.40;;;;;;5034554;28;20438;-69
2023/07/16 10:23:39;;;;;;;1.03;0.50;;;28.10;64.80;;;;;;5034605;28;20397;-70
2023/07/16 10:26:09;;;;;;;0.50;0.50;;;27.70;64.90;;;;;;5034054;28;20944;-70
2023/07/16 10:28:36;;;;;;;0.40;0.40;;;28.20;66.70;;;;;;5034502;28;20398;-70
2023/07/16 10:31:02;;;;;;;0.40;0.40;;;28.50;66.40;;;;;;5033072;28;20937;-70
2023/07/16 10:33:28;;;;;;;6.73;0.90;;;28.80;64.50;;;;;;5034228;28;20398;-70
2023/07/16 10:35:56;;;;;;;1.30;0.70;;;29.30;62.70;;;;;;5033263;28;20398;-69
2023/07/16 10:38:21;;;;;;;0.30;0.30;;;29.00;63.20;;;;;;5033195;28;20218;-69
2023/07/16 10:40:47;;;;;;;0.70;0.60;;;28.20;64.20;;;;;;5033277;28;20554;-69
2023/07/16 10:43:13;;;;;;;0.43;0.43;;;28.10;64.50;;;;;;5016446;28;20484;-70
2023/07/16 10:45:39;;;;;;;0.87;0.67;;;28.40;66.90;;;;;;5034145;28;20191;-69
2023/07/16 10:48:05;;;;;;;1.23;0.60;;;28.60;67.10;;;;;;5034228;28;20488;-70
2023/07/16 10:50:35;;;;;;;0.40;0.40;;;28.70;64.10;;;;;;5034164;28;20429;-69
2023/07/16 10:53:01;;;;;;;1.90;0.60;;;28.50;66.90;;;;;;5033612;28;20909;-70
2023/07/16 10:55:28;;;;;;;0.50;0.50;;;28.10;63.70;;;;;;5033937;28;20495;-70
2023/07/16 10:57:56;;;;;;;0.40;0.40;;;28.00;65.40;;;;;;5033824;28;20688;-70
2023/07/16 11:00:22;;;;;;;0.80;0.70;;;28.10;67.20;;;;;;5034131;28;20460;-69
2023/07/16 11:02:51;;;;;;;0.60;0.60;;;27.90;63.40;;;;;;5033783;28;20434;-69
2023/07/16 11:05:18;;;;;;;0.50;0.50;;;27.50;68.60;;;;;;5033888;28;20803;-70
2023/07/16 11:07:48;;;;;;;0.60;0.60;;;27.30;66.50;;;;;;5033922;28;20819;-69
2023/07/16 11:10:17;;;;;;;1.70;1.03;;;27.20;68.80;;;;;;5033681;28;20380;-69
2023/07/16 11:12:43;;;;;;;0.47;0.47;;;26.80;69.70;;;;;;5033489;28;20388;-70
2023/07/16 11:15:10;;;;;;;0.50;0.50;;;26.70;70.20;;;;;;5033757;28;20372;-69
2023/07/16 11:17:39;;;;;;;2.63;1.10;;;26.60;70.00;;;;;;5033321;28;20790;-70
2023/07/16 11:20:07;;;;;;;1.13;0.90;;;26.50;72.00;;;;;;5033667;28;20437;-69
2023/07/16 11:22:36;;;;;;;0.70;0.70;;;26.10;71.20;;;;;;5033009;28;20385;-70
2023/07/16 11:25:02;;;;;;;0.50;0.50;;;26.00;70.70;;;;;;5033501;28;20402;-70
2023/07/16 11:27:31;;;;;;;2.10;2.00;;;25.90;72.20;;;;;;5033499;28;20411;-69
2023/07/16 11:29:59;;;;;;;2.20;0.57;;;25.60;69.10;;;;;;5033558;28;20412;-70
2023/07/16 11:32:41;;;;;;;0.97;0.70;;;25.40;74.80;;;;;;5033290;28;20409;-69
2023/07/16 11:35:08;;;;;;;2.10;0.80;;;25.50;75.40;;;;;;5033512;28;20437;-70
2023/07/16 11:37:36;;;;;;;0.40;0.40;;;25.60;74.60;;;;;;5033241;28;20472;-70
2023/07/16 11:40:04;;;;;;;0.73;0.73;;;25.90;72.60;;;;;;5033345;28;20893;-69
2023/07/16 11:42:30;;;;;;;0.57;0.57;;;26.20;73.30;;;;;;5033418;28;20398;-69
2023/07/16 11:44:57;;;;;;;0.50;0.50;;;25.90;71.40;;;;;;5033520;28;20413;-70
2023/07/16 11:47:23;;;;;;;1.77;1.67;;;25.80;70.80;;;;;;5033383;28;20412;-69
2023/07/16 11:49:49;;;;;;;1.10;1.10;;;25.00;69.90;;;;;;5033114;28;20402;-69
2023/07/16 11:52:19;;;;;;;1.10;1.10;;;24.90;72.50;;;;;;5033060;28;20524;-70
2023/07/16 11:54:44;;;;;;;0.50;0.50;;;25.00;74.60;;;;;;5033411;28;20372;-69
2023/07/16 11:57:10;;;;;;;0.60;0.60;;;24.80;76.30;;;;;;5033200;28;20407;-69
2023/07/16 11:59:36;;;;;;;0.60;0.40;;;24.60;73.20;;;;;;5015429;28;20205;-69
2023/07/16 12:02:02;;;;;;;1.43;0.90;;;25.00;79.50;;;;;;5032967;28;20553;-69
2023/07/16 12:04:28;;;;;;;0.60;0.50;;;25.20;74.10;;;;;;5032920;28;20388;-70
2023/07/16 12:06:54;;;;;;;11.17;0.83;;;25.30;71.70;;;;;;5036300;28;20435;-69
2023/07/16 12:09:20;;;;;;;0.50;0.50;;;25.30;75.50;;;;;;5036999;28;20176;-70
2023/07/16 12:11:45;;;;;;;0.50;0.50;;;25.40;73.90;;;;;;5036811;28;20543;-70
2023/07/16 12:14:12;;;;;;;0.70;0.50;;;25.20;73.10;;;;;;5037111;28;20185;-71
2023/07/16 12:16:38;;;;;;;0.80;0.80;;;24.80;76.10;;;;;;5037252;28;20283;-71
2023/07/16 12:19:05;;;;;;;0.70;0.60;;;24.60;76.60;;;;;;5036641;28;20540;-71
2023/07/16 12:21:31;;;;;;;1.00;0.70;;;24.50;79.80;;;;;;5036639;28;20762;-71
2023/07/16 12:23:56;;;;;;;0.70;0.40;;;24.50;76.50;;;;;;5036822;28;20376;-69
2023/07/16 12:26:22;;;;;;;2.53;0.70;;;24.70;92.50;;;;;;5036676;28;20171;-68
2023/07/16 12:28:48;;;;;;;1.80;0.50;;;24.50;73.00;;;;;;5036524;28;20171;-68
2023/07/16 12:31:15;;;;;;;0.67;0.67;;;24.30;74.30;;;;;;5036663;28;20159;-68
2023/07/16 12:33:40;;;;;;;0.67;0.67;;;24.40;76.30;;;;;;5036565;28;20170;-69
2023/07/16 12:36:06;;;;;;;0.63;0.63;;;24.50;77.40;;;;;;5036735;28;20401;-68
2023/07/16 12:38:32;;;;;;;0.90;0.90;;;24.60;77.70;;;;;;5036289;28;20663;-68
2023/07/16 12:40:57;;;;;;;0.70;0.70;;;24.70;77.60;;;;;;5036103;28;20557;-69
2023/07/16 12:43:23;;;;;;;0.60;0.60;;;24.70;75.00;;;;;;5036068;28;20163;-68
2023/07/16 12:45:49;;;;;;;1.03;0.70;;;24.60;76.90;;;;;;5036019;28;20167;-68